Time;durP1;ratioP1;P1;durP2;ratioP2;P2;SDS_P1;SDS_P2;PMS_P1;PMS_P2;Temp;Humidity;BMP_temperature;BMP_pressure;BME280_temperature;BME280_humidity;BME280_pressure;Samples;Min_cycle;Max_cycle;Signal;HPM_P1;HPM_P2
2023/08/16 00:00:52;;;;;;;7.13;4.38;;;;;;;20.38;79.28;96133.88;2065650;28;20050;-59
2023/08/16 00:01:53;;;;;;;7.40;4.95;;;;;;;20.34;79.53;96127.22;2065199;28;20054;-60
2023/08/16 00:02:54;;;;;;;9.45;4.88;;;;;;;20.27;79.76;96126.88;2065651;28;20050;-59
2023/08/16 00:03:55;;;;;;;6.13;4.97;;;;;;;20.31;79.59;96129.25;2065927;28;20046;-59
2023/08/16 00:04:56;;;;;;;7.80;5.25;;;;;;;20.31;79.74;96123.97;2057464;28;20047;-60
2023/08/16 00:05:57;;;;;;;10.38;5.50;;;;;;;20.31;79.86;96132.72;2065771;28;20050;-60
2023/08/16 00:06:58;;;;;;;9.13;5.50;;;;;;;20.26;80.06;96130.47;2065160;28;20054;-59
2023/08/16 00:07:59;;;;;;;8.07;5.70;;;;;;;20.26;80.11;96137.53;2064779;28;20065;-58
2023/08/16 00:09:01;;;;;;;9.82;4.85;;;;;;;20.22;80.30;96129.06;2065869;28;20058;-58
2023/08/16 00:10:02;;;;;;;7.65;4.75;;;;;;;20.20;80.34;96127.50;2065647;28;20131;-58
2023/08/16 00:11:03;;;;;;;9.35;5.32;;;;;;;20.17;80.18;96120.69;2065746;28;20372;-58
2023/08/16 00:12:05;;;;;;;7.78;5.25;;;;;;;20.17;80.36;96120.69;2065271;28;20054;-59
2023/08/16 00:13:06;;;;;;;8.13;5.03;;;;;;;20.21;80.54;96122.13;2065670;28;20046;-59
2023/08/16 00:14:07;;;;;;;10.10;5.60;;;;;;;20.19;81.14;96126.69;2065448;28;20046;-57
2023/08/16 00:15:09;;;;;;;8.85;5.47;;;;;;;20.16;80.97;96129.56;2068523;28;20053;-57
2023/08/16 00:16:10;;;;;;;8.25;5.55;;;;;;;20.13;81.42;96124.56;2065845;28;20049;-60
2023/08/16 00:17:11;;;;;;;9.32;5.22;;;;;;;20.08;81.76;96123.28;2065371;28;20510;-60
2023/08/16 00:18:12;;;;;;;7.68;5.13;;;;;;;20.04;82.18;96128.78;2066033;28;20062;-58
2023/08/16 00:19:13;;;;;;;8.77;5.65;;;;;;;19.99;82.40;96120.44;2065361;28;20065;-58
2023/08/16 00:20:15;;;;;;;7.57;5.90;;;;;;;19.97;82.76;96126.81;2065630;28;20057;-57
2023/08/16 00:21:16;;;;;;;10.77;6.25;;;;;;;19.90;83.39;96128.25;2067060;28;20061;-59
2023/08/16 00:22:18;;;;;;;7.63;5.47;;;;;;;19.88;83.46;96123.09;2068491;28;20398;-58
2023/08/16 00:23:19;;;;;;;11.88;6.15;;;;;;;19.88;83.62;96122.28;2068317;28;20046;-58
2023/08/16 00:24:20;;;;;;;10.15;5.90;;;;;;;19.87;83.75;96124.09;2067984;28;20050;-58
2023/08/16 00:25:21;;;;;;;13.38;6.43;;;;;;;19.87;83.55;96128.53;2068420;28;20046;-58
2023/08/16 00:26:22;;;;;;;9.57;6.25;;;;;;;19.90;83.60;96123.00;2068789;28;20054;-58
2023/08/16 00:27:23;;;;;;;11.25;6.68;;;;;;;19.87;83.59;96113.53;2068119;28;20058;-58
2023/08/16 00:28:24;;;;;;;9.30;5.70;;;;;;;19.89;83.64;96122.16;2068469;28;20061;-57
2023/08/16 00:29:26;;;;;;;13.48;6.78;;;;;;;19.83;83.81;96110.34;2059326;28;20062;-59
2023/08/16 00:30:27;;;;;;;10.43;6.85;;;;;;;19.88;83.70;96120.47;2059893;28;20055;-60
2023/08/16 00:31:28;;;;;;;11.50;6.80;;;;;;;19.86;83.85;96111.88;2068369;28;20050;-59
2023/08/16 00:32:29;;;;;;;14.43;6.75;;;;;;;19.86;84.08;96124.19;2059164;28;20454;-59
2023/08/16 00:33:30;;;;;;;9.07;6.47;;;;;;;19.85;83.84;96117.25;2059702;28;20055;-59
2023/08/16 00:34:31;;;;;;;14.07;7.82;;;;;;;19.83;83.90;96118.25;2059847;28;20046;-59
2023/08/16 00:35:32;;;;;;;13.50;7.15;;;;;;;19.86;83.93;96116.28;2059342;28;20051;-59
2023/08/16 00:36:34;;;;;;;12.35;7.35;;;;;;;19.82;83.88;96113.06;2059653;28;20050;-59
2023/08/16 00:37:35;;;;;;;11.00;6.80;;;;;;;19.83;84.16;96117.38;2059699;28;20073;-59
2023/08/16 00:38:42;;;;;;;11.23;6.47;;;;;;;19.78;84.27;96114.28;2059294;28;20502;-59
2023/08/16 00:39:43;;;;;;;12.70;7.45;;;;;;;19.77;84.27;96115.25;2060733;28;20059;-59
2023/08/16 00:40:48;;;;;;;13.00;7.55;;;;;;;19.75;84.42;96117.16;2068202;28;20054;-59
2023/08/16 00:41:49;;;;;;;11.40;7.25;;;;;;;19.72;84.80;96117.44;2059684;28;20061;-59
2023/08/16 00:42:50;;;;;;;12.45;8.38;;;;;;;19.67;84.86;96112.53;2059098;28;20431;-59
2023/08/16 00:43:51;;;;;;;15.90;9.00;;;;;;;19.67;85.30;96117.78;2068229;28;20058;-59
2023/08/16 00:44:53;;;;;;;13.65;8.20;;;;;;;19.64;85.37;96111.91;2068356;28;20054;-59
2023/08/16 00:45:54;;;;;;;13.75;8.30;;;;;;;19.63;85.38;96115.53;2068242;28;20066;-59
2023/08/16 00:46:56;;;;;;;13.98;9.25;;;;;;;19.61;85.94;96115.63;2059677;28;20423;-59
2023/08/16 00:47:57;;;;;;;18.05;9.82;;;;;;;19.60;86.44;96121.88;2059654;28;20051;-59
2023/08/16 00:48:58;;;;;;;16.25;8.70;;;;;;;19.57;86.53;96117.69;2058913;28;20054;-58
2023/08/16 00:50:00;;;;;;;18.10;9.10;;;;;;;19.57;86.71;96130.03;2059963;28;20046;-59
2023/08/16 00:51:01;;;;;;;15.60;8.88;;;;;;;19.56;86.92;96126.53;2067806;28;20055;-59
2023/08/16 00:52:02;;;;;;;11.55;7.25;;;;;;;19.50;87.03;96119.16;2059812;28;20061;-59
2023/08/16 00:53:04;;;;;;;12.77;8.80;;;;;;;19.52;86.94;96119.88;2043612;29;20163;-59
2023/08/16 00:54:05;;;;;;;11.38;8.07;;;;;;;19.52;86.86;96127.75;2051782;28;20527;-59
2023/08/16 00:55:08;;;;;;;15.43;8.15;;;;;;;19.46;87.01;96115.09;2059144;28;20503;-59
2023/08/16 00:56:09;;;;;;;12.20;7.82;;;;;;;19.47;86.76;96116.75;2059305;28;20062;-59
2023/08/16 00:57:10;;;;;;;14.27;8.07;;;;;;;19.49;86.81;96120.13;2068178;28;20053;-59
2023/08/16 00:58:11;;;;;;;13.93;8.18;;;;;;;19.49;86.71;96122.75;2059243;28;20055;-59
2023/08/16 00:59:12;;;;;;;14.05;8.20;;;;;;;19.49;86.12;96120.13;2059499;28;20149;-59
2023/08/16 01:00:14;;;;;;;14.05;8.48;;;;;;;19.47;86.53;96113.31;2059349;28;20047;-59
2023/08/16 01:01:15;;;;;;;13.23;8.27;;;;;;;19.48;86.55;96113.16;2059058;28;20047;-59
2023/08/16 01:02:17;;;;;;;12.50;7.68;;;;;;;19.43;86.71;96104.78;2059461;28;20058;-59
2023/08/16 01:03:19;;;;;;;10.02;7.15;;;;;;;19.46;86.74;96115.09;2059359;28;20050;-59
2023/08/16 01:04:20;;;;;;;9.80;7.22;;;;;;;19.39;87.07;96108.66;2059345;28;20046;-59
2023/08/16 01:05:21;;;;;;;15.48;7.60;;;;;;;19.45;87.31;96112.56;2051145;29;20107;-59
2023/08/16 01:06:23;;;;;;;10.93;7.50;;;;;;;19.44;87.44;96117.03;2051306;28;20074;-59
2023/08/16 01:07:24;;;;;;;11.50;7.45;;;;;;;19.41;87.63;96117.28;2059595;28;20058;-59
2023/08/16 01:08:25;;;;;;;9.63;6.60;;;;;;;19.41;87.79;96122.53;2067780;28;20418;-59
2023/08/16 01:09:26;;;;;;;12.90;7.60;;;;;;;19.37;87.97;96123.72;2067224;28;20054;-59
2023/08/16 01:10:35;;;;;;;11.68;7.68;;;;;;;19.30;88.25;96112.00;2066941;28;20561;-59
2023/08/16 01:12:09;;;;;;;11.80;7.85;;;;;;;19.33;88.37;96120.50;2067645;28;20050;-59
2023/08/16 01:13:13;;;;;;;9.63;7.50;;;;;;;19.32;88.04;96112.72;2056789;28;20058;-58
2023/08/16 01:14:29;;;;;;;10.60;8.20;;;;;;;19.30;88.34;96115.50;2054858;28;20054;-59
2023/08/16 01:15:35;;;;;;;11.70;7.43;;;;;;;19.26;88.80;96113.22;2051233;28;20067;-59
2023/08/16 01:16:36;;;;;;;12.57;7.95;;;;;;;19.24;88.58;96100.16;2045538;28;20059;-59
2023/08/16 01:17:38;;;;;;;13.00;8.45;;;;;;;19.24;88.52;96109.88;2051425;28;20055;-59
2023/08/16 01:18:39;;;;;;;14.43;7.70;;;;;;;19.23;88.54;96113.47;2051833;28;20051;-59
2023/08/16 01:19:41;;;;;;;12.23;8.57;;;;;;;19.17;88.60;96105.09;2051255;28;20062;-59
2023/08/16 01:20:42;;;;;;;13.75;8.52;;;;;;;19.21;88.55;96107.50;2035857;29;20052;-59
2023/08/16 01:21:46;;;;;;;11.50;7.80;;;;;;;19.13;88.75;96101.03;2043814;28;20059;-59
2023/08/16 01:22:50;;;;;;;14.00;8.20;;;;;;;19.16;88.98;96105.22;2051692;28;20061;-59
2023/08/16 01:24:06;;;;;;;10.55;7.88;;;;;;;19.14;89.13;96104.53;2059994;28;20054;-59
2023/08/16 01:25:39;;;;;;;13.98;8.50;;;;;;;19.11;89.29;96104.75;2067340;28;20410;-59
2023/08/16 01:26:40;;;;;;;12.32;8.07;;;;;;;19.07;89.52;96109.44;2067710;28;20054;-59
2023/08/16 01:27:41;;;;;;;13.57;8.48;;;;;;;19.03;89.57;96108.00;2066784;28;20061;-59
2023/08/16 01:28:43;;;;;;;9.82;7.72;;;;;;;18.99;89.79;96106.56;2059345;28;20053;-59
2023/08/16 01:29:45;;;;;;;12.70;7.93;;;;;;;18.96;90.49;96109.44;2051357;29;20051;-59
2023/08/16 01:30:47;;;;;;;14.05;9.15;;;;;;;18.91;90.04;96101.06;2051547;28;20070;-59
2023/08/16 01:31:48;;;;;;;12.65;8.32;;;;;;;18.92;90.26;96108.00;2059532;28;20134;-59
2023/08/16 01:32:49;;;;;;;15.50;8.85;;;;;;;18.92;90.44;96110.63;2049899;28;20055;-59
2023/08/16 01:33:51;;;;;;;13.32;8.80;;;;;;;18.89;90.29;96108.25;2058209;28;20059;-58
2023/08/16 01:34:52;;;;;;;11.60;8.05;;;;;;;18.90;90.52;96108.13;2066954;28;20414;-59
2023/08/16 01:35:53;;;;;;;11.93;8.27;;;;;;;18.91;90.35;96111.59;2066496;28;20058;-59
2023/08/16 01:36:55;;;;;;;16.13;9.10;;;;;;;18.89;90.33;96110.88;2066290;28;20058;-59
2023/08/16 01:37:56;;;;;;;13.40;8.70;;;;;;;18.87;90.49;96110.16;2058120;28;20050;-59
2023/08/16 01:38:58;;;;;;;12.25;9.35;;;;;;;18.84;90.58;96115.66;2057539;28;20403;-59
2023/08/16 01:40:01;;;;;;;15.82;9.18;;;;;;;18.81;90.38;96110.63;2050259;28;20126;-59
2023/08/16 01:41:08;;;;;;;13.18;9.75;;;;;;;18.79;91.02;96109.91;2058650;28;20046;-59
2023/08/16 01:42:09;;;;;;;18.48;9.80;;;;;;;18.73;90.83;96100.69;2066079;28;20050;-59
2023/08/16 01:43:10;;;;;;;14.63;8.75;;;;;;;18.70;91.25;96108.81;2049895;29;20093;-59
2023/08/16 01:44:11;;;;;;;12.15;9.65;;;;;;;18.65;91.74;96109.16;2026698;29;20072;-59
2023/08/16 01:45:13;;;;;;;16.60;9.93;;;;;;;18.64;92.19;96106.66;2029316;29;20429;-59
2023/08/16 01:46:14;;;;;;;14.15;10.50;;;;;;;18.61;91.91;96110.38;2042697;29;20056;-59
2023/08/16 01:47:15;;;;;;;13.68;10.30;;;;;;;18.55;92.22;96092.44;2049856;29;20070;-59
2023/08/16 01:48:16;;;;;;;14.13;10.65;;;;;;;18.57;92.46;96103.66;2057475;28;20047;-59
2023/08/16 01:49:18;;;;;;;12.45;9.85;;;;;;;18.52;92.72;96103.19;2057990;28;20499;-59
2023/08/16 01:50:19;;;;;;;14.63;10.32;;;;;;;18.56;92.44;96109.91;2050033;29;20066;-59
2023/08/16 01:51:21;;;;;;;17.25;10.93;;;;;;;18.53;92.94;96104.88;2042112;28;20535;-59
2023/08/16 01:52:24;;;;;;;12.07;9.98;;;;;;;18.56;92.78;96111.69;2050379;28;20062;-59
2023/08/16 01:53:25;;;;;;;13.63;10.27;;;;;;;18.56;92.59;96107.25;2033897;29;20063;-59
2023/08/16 01:54:26;;;;;;;14.13;10.75;;;;;;;18.50;92.97;96099.84;2042475;29;20052;-59
2023/08/16 01:55:27;;;;;;;16.85;10.45;;;;;;;18.54;92.27;96111.78;2066662;28;20050;-59
2023/08/16 01:56:29;;;;;;;11.30;10.10;;;;;;;18.51;92.66;96118.13;2057877;28;20061;-59
2023/08/16 01:57:30;;;;;;;11.32;9.68;;;;;;;18.44;92.45;96100.31;2050126;29;20070;-59
2023/08/16 01:58:31;;;;;;;16.25;10.80;;;;;;;18.47;92.75;96116.72;2049931;29;20066;-59
2023/08/16 01:59:33;;;;;;;16.42;10.82;;;;;;;18.44;92.97;96111.69;2057932;28;20061;-59
2023/08/16 02:00:35;;;;;;;13.27;10.27;;;;;;;18.44;93.01;96116.09;2050239;28;20062;-59
2023/08/16 02:01:37;;;;;;;13.30;10.00;;;;;;;18.43;93.13;96111.78;2049955;28;20059;-59
2023/08/16 02:02:38;;;;;;;15.15;9.57;;;;;;;18.41;93.21;96114.53;2057636;28;20066;-59
2023/08/16 02:03:39;;;;;;;12.27;9.88;;;;;;;18.38;93.93;96117.41;2065719;28;20509;-59
2023/08/16 02:04:40;;;;;;;12.30;10.70;;;;;;;18.35;93.92;96106.28;2057525;28;20057;-59
2023/08/16 02:05:41;;;;;;;13.35;10.23;;;;;;;18.33;94.45;96108.19;2057961;28;20062;-59
2023/08/16 02:06:42;;;;;;;12.80;9.70;;;;;;;18.33;93.79;96114.28;2066899;28;20054;-59
2023/08/16 02:07:44;;;;;;;14.77;10.55;;;;;;;18.35;94.34;96114.19;2057589;28;20058;-59
2023/08/16 02:08:45;;;;;;;15.00;9.63;;;;;;;18.37;94.31;96115.72;2058083;28;20443;-58
2023/08/16 02:09:46;;;;;;;14.35;10.07;;;;;;;18.38;94.11;96116.56;2066004;28;20514;-59
2023/08/16 02:10:47;;;;;;;12.02;9.27;;;;;;;18.38;94.17;96114.75;2058076;28;20081;-59
2023/08/16 02:11:49;;;;;;;17.25;9.73;;;;;;;18.42;94.10;96124.09;2058131;28;20047;-59
2023/08/16 02:12:50;;;;;;;14.85;9.65;;;;;;;18.37;93.41;96120.16;2057581;28;20055;-59
2023/08/16 02:13:51;;;;;;;22.65;10.10;;;;;;;18.35;92.92;96116.81;2057631;28;20059;-59
2023/08/16 02:15:00;;;;;;;15.88;10.65;;;;;;;18.33;93.33;96118.69;2058166;28;20078;-59
2023/08/16 02:16:01;;;;;;;15.77;10.07;;;;;;;18.31;93.43;96121.47;2057498;28;20062;-59
2023/08/16 02:17:02;;;;;;;13.55;9.88;;;;;;;18.30;94.49;96122.41;2057564;28;20055;-59
2023/08/16 02:18:04;;;;;;;12.40;9.40;;;;;;;18.30;94.68;96117.97;2049337;29;20058;-59
2023/08/16 02:19:05;;;;;;;15.00;10.15;;;;;;;18.30;94.33;96123.22;2057358;28;20057;-59
2023/08/16 02:20:08;;;;;;;15.20;10.10;;;;;;;18.30;94.79;96125.88;2065259;28;20050;-60
2023/08/16 02:21:09;;;;;;;13.80;9.50;;;;;;;18.25;93.78;96127.16;2066540;28;20042;-59
2023/08/16 02:22:10;;;;;;;15.18;9.35;;;;;;;18.21;93.62;96123.13;2066409;28;20491;-59
2023/08/16 02:23:11;;;;;;;13.65;9.55;;;;;;;18.22;93.96;96115.09;2065771;28;20057;-60
2023/08/16 02:24:12;;;;;;;14.15;9.77;;;;;;;18.21;94.84;96115.22;2057713;28;20050;-59
2023/08/16 02:25:13;;;;;;;14.95;11.07;;;;;;;18.18;94.71;96116.28;2057549;28;20062;-59
2023/08/16 02:26:15;;;;;;;12.35;10.52;;;;;;;18.17;95.08;96119.03;2066373;28;20077;-58
2023/08/16 02:27:17;;;;;;;12.82;10.07;;;;;;;18.14;95.20;96124.53;2065748;28;20054;-59
2023/08/16 02:28:18;;;;;;;12.13;9.48;;;;;;;18.07;94.84;96116.28;2066447;28;20053;-59
2023/08/16 02:29:19;;;;;;;12.98;10.90;;;;;;;18.08;95.05;96123.19;2066062;28;20057;-59
2023/08/16 02:30:20;;;;;;;15.82;11.43;;;;;;;18.07;95.73;96118.91;2057524;28;20665;-58
2023/08/16 02:31:22;;;;;;;13.63;10.90;;;;;;;18.03;95.91;96118.28;2058311;28;20058;-59
2023/08/16 02:32:24;;;;;;;15.93;11.07;;;;;;;18.03;95.79;96120.91;2057324;28;20059;-59
2023/08/16 02:33:25;;;;;;;11.93;10.63;;;;;;;18.03;95.68;96126.16;2057816;28;20467;-59
2023/08/16 02:34:26;;;;;;;16.05;11.32;;;;;;;17.99;96.28;96126.50;2057893;28;20112;-59
2023/08/16 02:35:28;;;;;;;16.27;11.32;;;;;;;17.96;95.67;96124.97;2057660;28;20059;-59
2023/08/16 02:36:29;;;;;;;12.95;10.73;;;;;;;17.96;96.57;96131.97;2065786;28;20565;-59
2023/08/16 02:37:30;;;;;;;15.70;10.85;;;;;;;17.90;96.82;96127.19;2066260;28;20061;-59
2023/08/16 02:38:31;;;;;;;13.82;10.77;;;;;;;17.85;97.49;96123.13;2065957;28;20059;-59
2023/08/16 02:39:32;;;;;;;13.82;10.85;;;;;;;17.79;97.70;96120.94;2066392;28;20483;-59
2023/08/16 02:40:35;;;;;;;13.20;10.35;;;;;;;17.82;97.99;96128.59;2066358;28;20054;-59
2023/08/16 02:41:38;;;;;;;15.25;10.45;;;;;;;17.88;97.86;96129.09;2065728;28;20081;-59
2023/08/16 02:42:39;;;;;;;15.60;10.07;;;;;;;17.91;97.83;96126.22;2065894;28;20065;-59
2023/08/16 02:43:40;;;;;;;15.50;11.00;;;;;;;17.91;97.68;96128.84;2057831;28;20062;-59
2023/08/16 02:44:42;;;;;;;14.73;10.85;;;;;;;17.90;97.02;96125.41;2057034;28;20054;-59
2023/08/16 02:45:43;;;;;;;15.25;10.82;;;;;;;17.89;96.90;96125.53;2064806;28;20061;-59
2023/08/16 02:46:45;;;;;;;13.68;10.70;;;;;;;17.90;97.42;96127.19;2065981;28;20061;-58
2023/08/16 02:47:47;;;;;;;13.63;10.68;;;;;;;17.92;97.06;96127.91;2066384;28;20058;-59
2023/08/16 02:48:48;;;;;;;14.90;11.45;;;;;;;17.92;97.34;96125.31;2065974;28;20143;-59
2023/08/16 02:49:49;;;;;;;12.82;11.13;;;;;;;17.91;96.88;96119.22;2065610;28;20073;-59
2023/08/16 02:50:50;;;;;;;12.40;9.90;;;;;;;17.91;97.10;96123.59;2057851;28;20051;-59
2023/08/16 02:51:51;;;;;;;12.60;10.68;;;;;;;17.90;97.12;96125.41;2057918;28;20077;-59
2023/08/16 02:52:52;;;;;;;13.27;10.07;;;;;;;17.91;97.01;96120.97;2066231;28;20054;-59
2023/08/16 02:53:54;;;;;;;13.45;10.27;;;;;;;17.90;97.14;96128.03;2066358;28;20050;-59
2023/08/16 02:54:55;;;;;;;14.25;9.93;;;;;;;17.90;96.95;96129.81;2066064;28;20050;-59
2023/08/16 02:55:56;;;;;;;15.73;10.40;;;;;;;17.87;96.99;96128.25;2057328;28;20059;-59
2023/08/16 02:56:57;;;;;;;12.73;10.57;;;;;;;17.84;96.92;96133.75;2057760;28;20058;-59
2023/08/16 02:57:58;;;;;;;13.77;9.85;;;;;;;17.81;97.57;96131.34;2057786;28;20081;-59
2023/08/16 02:58:59;;;;;;;12.32;9.88;;;;;;;17.78;97.17;96128.91;2049206;28;20058;-59
2023/08/16 03:00:00;;;;;;;12.38;8.68;;;;;;;17.79;97.12;96126.19;2049002;29;20511;-59
2023/08/16 03:01:01;;;;;;;13.73;9.60;;;;;;;17.83;97.30;96126.81;2057251;28;20051;-59
2023/08/16 03:02:02;;;;;;;12.15;9.48;;;;;;;17.85;97.48;96123.13;2056592;28;20055;-59
2023/08/16 03:03:04;;;;;;;12.32;9.55;;;;;;;17.79;97.09;96120.94;2057560;28;20479;-59
2023/08/16 03:04:05;;;;;;;15.30;10.27;;;;;;;17.76;97.25;96123.75;2065322;28;20057;-59
2023/08/16 03:05:06;;;;;;;13.77;10.23;;;;;;;17.71;97.25;96122.44;2065484;28;20050;-59
2023/08/16 03:06:07;;;;;;;12.40;10.05;;;;;;;17.68;97.51;96122.66;2057046;28;20050;-60
2023/08/16 03:07:09;;;;;;;12.63;9.88;;;;;;;17.61;97.68;96109.13;2057593;28;20046;-59
2023/08/16 03:08:10;;;;;;;16.02;9.70;;;;;;;17.61;97.46;96114.38;2057357;28;20051;-59
2023/08/16 03:09:11;;;;;;;10.32;9.20;;;;;;;17.66;97.32;96116.69;2057442;28;20043;-59
2023/08/16 03:10:13;;;;;;;10.95;9.68;;;;;;;17.65;97.42;96128.97;2066193;28;20398;-59
2023/08/16 03:11:14;;;;;;;14.20;9.75;;;;;;;17.64;97.21;96124.66;2065460;28;20050;-59
2023/08/16 03:12:15;;;;;;;14.15;9.82;;;;;;;17.61;97.71;96115.25;2066077;28;20054;-59
2023/08/16 03:13:18;;;;;;;13.23;10.00;;;;;;;17.58;97.44;96125.13;2057395;28;20416;-59
2023/08/16 03:14:19;;;;;;;12.30;9.25;;;;;;;17.56;97.61;96121.75;2057244;28;20065;-59
2023/08/16 03:15:21;;;;;;;12.10;9.60;;;;;;;17.57;97.35;96131.34;2066194;28;20046;-59
2023/08/16 03:16:22;;;;;;;12.77;9.65;;;;;;;17.58;97.10;96123.31;2056687;28;20542;-59
2023/08/16 03:17:24;;;;;;;12.48;9.55;;;;;;;17.57;97.12;96121.66;2049145;29;20463;-59
2023/08/16 03:18:25;;;;;;;11.02;8.82;;;;;;;17.58;97.59;96125.13;2049517;28;20043;-59
2023/08/16 03:19:27;;;;;;;14.27;9.73;;;;;;;17.56;97.92;96122.63;2049324;29;20055;-60
2023/08/16 03:20:28;;;;;;;11.95;9.02;;;;;;;17.62;97.37;96129.22;2057023;28;20415;-59
2023/08/16 03:21:29;;;;;;;12.15;9.43;;;;;;;17.66;97.36;96128.00;2065819;28;20053;-59
2023/08/16 03:22:30;;;;;;;11.00;9.55;;;;;;;17.66;97.32;96133.28;2065611;28;20065;-59
2023/08/16 03:23:31;;;;;;;12.68;9.85;;;;;;;17.65;96.99;96134.22;2057038;28;20443;-59
2023/08/16 03:24:32;;;;;;;14.13;8.90;;;;;;;17.60;97.57;96131.09;2057483;28;20054;-59
2023/08/16 03:25:33;;;;;;;12.57;9.63;;;;;;;17.61;97.56;96128.38;2057333;28;20058;-59
2023/08/16 03:26:36;;;;;;;12.75;9.60;;;;;;;17.62;96.91;96139.72;2057416;28;20061;-59
2023/08/16 03:27:38;;;;;;;11.82;9.48;;;;;;;17.61;97.30;96138.00;2057888;28;20407;-59
2023/08/16 03:28:40;;;;;;;12.10;8.80;;;;;;;17.57;97.45;96137.41;2065042;28;20057;-59
2023/08/16 03:29:41;;;;;;;13.68;8.45;;;;;;;17.51;96.73;96130.00;2057202;28;20065;-59
2023/08/16 03:30:42;;;;;;;11.25;9.07;;;;;;;17.51;97.45;96135.25;2057310;28;20073;-59
2023/08/16 03:31:43;;;;;;;13.85;9.98;;;;;;;17.49;96.56;96136.31;2065089;28;20062;-59
2023/08/16 03:32:45;;;;;;;13.82;9.32;;;;;;;17.44;97.45;96134.00;2057178;28;20061;-59
2023/08/16 03:33:46;;;;;;;11.93;9.30;;;;;;;17.39;97.56;96133.50;2057051;28;20050;-59
2023/08/16 03:34:48;;;;;;;11.77;10.15;;;;;;;17.36;97.68;96128.47;2056932;28;20047;-59
2023/08/16 03:35:49;;;;;;;12.40;9.27;;;;;;;17.34;97.67;96136.44;2049344;28;20562;-59
2023/08/16 03:36:50;;;;;;;12.80;9.93;;;;;;;17.32;97.10;96130.50;2057029;28;20061;-59
2023/08/16 03:37:53;;;;;;;13.90;9.90;;;;;;;17.27;97.74;96122.09;2056905;28;20051;-59
2023/08/16 03:38:54;;;;;;;13.60;9.88;;;;;;;17.32;97.85;96137.50;2057308;28;20541;-59
2023/08/16 03:39:57;;;;;;;12.77;10.05;;;;;;;17.32;97.84;96135.75;2065867;28;20061;-59
2023/08/16 03:40:58;;;;;;;11.48;9.68;;;;;;;17.30;98.19;96129.75;2065816;28;20379;-59
2023/08/16 03:41:59;;;;;;;11.98;9.73;;;;;;;17.29;98.03;96133.31;2065778;28;20095;-60
2023/08/16 03:43:03;;;;;;;13.30;10.20;;;;;;;17.28;98.87;96139.50;2057382;28;20434;-59
2023/08/16 03:44:06;;;;;;;13.48;9.68;;;;;;;17.26;98.32;96138.78;2049086;29;20055;-59
2023/08/16 03:45:07;;;;;;;13.55;9.88;;;;;;;17.23;98.87;96138.16;2049444;28;20063;-59
2023/08/16 03:46:10;;;;;;;14.88;9.25;;;;;;;17.15;99.31;96136.91;2065248;28;20094;-59
2023/08/16 03:47:11;;;;;;;11.55;9.43;;;;;;;17.14;99.23;96139.66;2057223;28;20058;-59
2023/08/16 03:48:13;;;;;;;12.32;10.18;;;;;;;17.14;98.64;96140.50;2049263;28;20058;-59
2023/08/16 03:49:14;;;;;;;11.27;10.02;;;;;;;17.13;98.99;96133.59;2049726;28;20058;-59
2023/08/16 03:50:15;;;;;;;14.20;10.60;;;;;;;17.15;98.84;96141.34;2057308;28;20051;-59
2023/08/16 03:51:16;;;;;;;12.88;10.38;;;;;;;17.14;98.55;96142.28;2065502;28;20050;-59
2023/08/16 03:52:19;;;;;;;12.90;10.05;;;;;;;17.15;98.88;96141.34;2056821;28;20059;-59
2023/08/16 03:53:20;;;;;;;13.20;10.95;;;;;;;17.12;98.68;96141.56;2056610;28;20051;-60
2023/08/16 03:54:21;;;;;;;17.80;10.27;;;;;;;17.09;98.16;96149.66;2065798;28;20073;-59
2023/08/16 03:55:22;;;;;;;11.20;9.70;;;;;;;17.05;98.76;96145.56;2065759;28;20064;-59
2023/08/16 03:56:23;;;;;;;13.32;9.93;;;;;;;17.05;98.25;96156.03;2065323;28;20058;-59
2023/08/16 03:57:24;;;;;;;12.63;9.63;;;;;;;17.04;98.59;96151.75;2065806;28;20046;-59
2023/08/16 03:58:25;;;;;;;14.13;9.70;;;;;;;17.05;99.28;96153.44;2065752;28;20050;-59
2023/08/16 03:59:27;;;;;;;11.82;8.82;;;;;;;17.11;99.82;96147.78;2057041;28;20062;-59
2023/08/16 04:00:28;;;;;;;14.52;10.80;;;;;;;17.19;99.09;96158.56;2057357;28;20058;-59
2023/08/16 04:01:31;;;;;;;13.57;9.48;;;;;;;17.18;98.40;96141.13;2056501;28;20051;-59
2023/08/16 04:02:32;;;;;;;13.95;9.00;;;;;;;17.24;98.25;96161.69;2057188;28;20443;-60
2023/08/16 04:03:33;;;;;;;12.15;9.23;;;;;;;17.20;98.19;96160.22;2065630;28;20054;-59
2023/08/16 04:04:34;;;;;;;13.43;9.60;;;;;;;17.18;98.82;96156.84;2057286;28;20058;-59
2023/08/16 04:05:35;;;;;;;11.65;8.90;;;;;;;17.15;98.78;96155.28;2048833;28;20062;-60
2023/08/16 04:06:38;;;;;;;12.77;9.45;;;;;;;17.12;98.84;96163.38;2048897;29;20535;-59
2023/08/16 04:07:39;;;;;;;13.30;10.00;;;;;;;17.10;98.54;96162.66;2056754;28;20065;-59
2023/08/16 04:08:40;;;;;;;12.10;9.38;;;;;;;17.00;98.05;96147.66;2064393;28;20050;-60
2023/08/16 04:09:41;;;;;;;10.90;9.32;;;;;;;17.04;97.91;96160.47;2065048;28;20054;-59
2023/08/16 04:10:43;;;;;;;14.20;10.48;;;;;;;17.05;98.69;96161.28;2057349;28;20066;-59
2023/08/16 04:11:44;;;;;;;14.88;10.15;;;;;;;17.05;99.14;96162.13;2057407;28;20070;-59
2023/08/16 04:12:45;;;;;;;14.65;9.85;;;;;;;17.08;99.07;96166.31;2065263;28;20486;-59
2023/08/16 04:13:46;;;;;;;13.82;9.77;;;;;;;17.08;98.86;96166.31;2065304;28;20050;-59
2023/08/16 04:14:47;;;;;;;12.45;9.02;;;;;;;17.03;98.40;96164.03;2056974;28;20058;-60
2023/08/16 04:15:49;;;;;;;13.05;10.20;;;;;;;17.05;99.19;96170.00;2056736;28;20530;-59
2023/08/16 04:16:50;;;;;;;16.05;10.48;;;;;;;17.03;99.29;96173.72;2057360;28;20055;-59
2023/08/16 04:17:52;;;;;;;12.50;9.68;;;;;;;17.02;98.32;96167.59;2057050;28;20054;-59
2023/08/16 04:18:54;;;;;;;13.23;9.73;;;;;;;16.97;98.86;96164.44;2056692;28;20507;-59
2023/08/16 04:19:56;;;;;;;17.08;10.55;;;;;;;17.00;98.56;96173.91;2057098;28;20062;-59
2023/08/16 04:20:57;;;;;;;12.40;10.57;;;;;;;16.99;98.55;96175.69;2056543;28;20051;-60
2023/08/16 04:21:59;;;;;;;14.90;11.05;;;;;;;16.98;99.67;96172.22;2056977;28;20047;-59
2023/08/16 04:23:00;;;;;;;15.05;11.35;;;;;;;16.97;99.29;96165.31;2056877;28;20475;-59
2023/08/16 04:24:01;;;;;;;14.05;11.13;;;;;;;17.01;99.83;96181.66;2056371;28;20051;-59
2023/08/16 04:25:03;;;;;;;11.15;9.98;;;;;;;17.02;99.78;96179.88;2065677;28;20053;-59
2023/08/16 04:26:04;;;;;;;13.50;11.43;;;;;;;17.01;99.37;96176.44;2065349;28;20050;-59
2023/08/16 04:27:07;;;;;;;12.32;10.98;;;;;;;17.00;99.75;96174.75;2056472;28;20515;-59
2023/08/16 04:28:08;;;;;;;17.25;11.02;;;;;;;17.08;99.32;96184.69;2057026;28;20054;-58
2023/08/16 04:29:11;;;;;;;13.95;10.70;;;;;;;17.06;99.40;96183.97;2056637;28;20043;-59
2023/08/16 04:30:12;;;;;;;13.20;10.23;;;;;;;17.14;99.95;96185.13;2057025;28;20498;-59
2023/08/16 04:31:13;;;;;;;13.27;10.60;;;;;;;17.22;100.00;96183.75;2056663;28;20057;-59
2023/08/16 04:32:14;;;;;;;14.55;9.95;;;;;;;17.28;99.88;96189.38;2057156;28;20528;-59
2023/08/16 04:33:16;;;;;;;12.68;9.80;;;;;;;17.34;99.37;96181.06;2064558;28;20054;-59
2023/08/16 04:34:17;;;;;;;14.45;9.35;;;;;;;17.46;99.21;96186.41;2065358;28;20061;-59
2023/08/16 04:35:19;;;;;;;14.02;9.45;;;;;;;17.57;98.60;96189.09;2065597;28;20080;-59
2023/08/16 04:36:20;;;;;;;16.88;9.10;;;;;;;17.65;98.40;96186.75;2065335;28;20054;-59
2023/08/16 04:37:21;;;;;;;9.38;8.35;;;;;;;17.72;96.95;96184.50;2056683;28;20050;-59
2023/08/16 04:38:22;;;;;;;10.73;8.85;;;;;;;17.78;97.43;96184.06;2056889;28;20058;-59
2023/08/16 04:39:23;;;;;;;10.18;8.00;;;;;;;17.84;96.99;96189.75;2048657;29;20055;-59
2023/08/16 04:40:24;;;;;;;13.05;8.57;;;;;;;18.00;96.95;96193.88;2048913;29;20059;-60
2023/08/16 04:41:26;;;;;;;13.80;8.27;;;;;;;18.13;95.58;96191.19;2057080;28;20051;-59
2023/08/16 04:42:30;;;;;;;12.57;8.80;;;;;;;18.29;95.67;96197.81;2064970;28;20058;-59
2023/08/16 04:43:32;;;;;;;9.20;7.72;;;;;;;18.33;94.12;96198.41;2056716;28;20055;-59
2023/08/16 04:44:33;;;;;;;17.75;9.30;;;;;;;18.28;93.55;96195.28;2056760;28;20061;-60
2023/08/16 04:45:35;;;;;;;10.48;8.73;;;;;;;18.27;93.68;96181.31;2064536;28;20402;-59
2023/08/16 04:46:36;;;;;;;12.60;8.48;;;;;;;18.26;92.64;96191.94;2065151;28;20466;-59
2023/08/16 04:47:37;;;;;;;13.13;8.93;;;;;;;18.19;92.75;96191.56;2056067;28;20058;-59